Time;durP1;ratioP1;P1;durP2;ratioP2;P2;SDS_P1;SDS_P2;PMS_P1;PMS_P2;Temp;Humidity;BMP_temperature;BMP_pressure;BME280_temperature;BME280_humidity;BME280_pressure;Samples;Min_cycle;Max_cycle;Signal;HPM_P1;HPM_P2
2023/10/06 00:00:42;;;;;;;13.53;7.23;;;;;;;8.36;100.00;101191.19;5063592;28;20216;-65
2023/10/06 00:03:11;;;;;;;11.93;8.60;;;;;;;8.36;100.00;101191.19;5073131;28;20201;-65
2023/10/06 00:05:38;;;;;;;15.23;8.27;;;;;;;8.35;100.00;101193.81;5074874;28;20176;-64
2023/10/06 00:08:17;;;;;;;15.90;8.10;;;;;;;8.39;100.00;101208.22;5090961;28;20194;-66
2023/10/06 00:10:45;;;;;;;11.10;8.07;;;;;;;8.38;100.00;101212.53;5094349;28;20247;-65
2023/10/06 00:13:31;;;;;;;15.37;7.13;;;;;;;8.26;100.00;101214.56;5099489;28;20258;-65
2023/10/06 00:15:57;;;;;;;15.83;8.27;;;;;;;8.25;100.00;101213.72;5081763;28;20209;-65
2023/10/06 00:18:23;;;;;;;10.57;7.20;;;;;;;8.31;100.00;101215.25;5101828;28;20179;-65
2023/10/06 00:20:49;;;;;;;10.60;6.87;;;;;;;8.30;100.00;101221.28;5063161;28;20227;-66
2023/10/06 00:23:27;;;;;;;13.37;8.00;;;;;;;8.31;100.00;101221.25;5081480;28;20220;-65
2023/10/06 00:25:57;;;;;;;11.17;7.37;;;;;;;8.28;100.00;101213.63;5091421;28;20180;-65
2023/10/06 00:28:26;;;;;;;15.03;7.33;;;;;;;8.24;100.00;101218.00;5080392;28;20213;-65
2023/10/06 00:30:56;;;;;;;13.13;7.20;;;;;;;8.04;100.00;101215.97;5062772;28;20211;-64
2023/10/06 00:33:23;;;;;;;13.47;7.30;;;;;;;8.17;100.00;101219.03;5073233;28;20211;-65
2023/10/06 00:35:50;;;;;;;14.70;7.77;;;;;;;8.14;100.00;101220.88;5074143;28;20544;-66
2023/10/06 00:38:16;;;;;;;12.37;7.90;;;;;;;8.18;100.00;101219.91;5080102;28;20208;-65
2023/10/06 00:40:51;;;;;;;11.83;7.27;;;;;;;7.98;100.00;101225.53;5068242;28;20278;-65
2023/10/06 00:43:28;;;;;;;10.47;6.27;;;;;;;7.89;100.00;101224.06;5077321;28;20229;-65
2023/10/06 00:45:53;;;;;;;10.03;5.63;;;;;;;7.85;100.00;101223.28;5074490;28;20736;-66
2023/10/06 00:48:19;;;;;;;12.43;5.60;;;;;;;7.75;100.00;101209.00;5090034;28;20262;-66
2023/10/06 00:50:44;;;;;;;9.47;5.27;;;;;;;7.75;100.00;101216.69;5049671;28;20676;-65
2023/10/06 00:53:13;;;;;;;7.13;5.90;;;;;;;7.78;100.00;101221.75;5065772;28;20201;-65
2023/10/06 00:55:40;;;;;;;11.57;6.37;;;;;;;7.74;100.00;101215.03;5064645;28;20184;-66
2023/10/06 00:58:10;;;;;;;8.00;5.93;;;;;;;7.70;100.00;101210.84;5070093;28;20254;-65
2023/10/06 01:00:39;;;;;;;7.03;5.40;;;;;;;7.68;100.00;101217.75;5062262;28;20664;-65
2023/10/06 01:03:14;;;;;;;10.97;6.00;;;;;;;7.67;100.00;101206.66;5087097;28;20186;-65
2023/10/06 01:05:44;;;;;;;10.70;6.30;;;;;;;7.57;100.00;101203.47;5080300;28;20227;-65
2023/10/06 01:08:11;;;;;;;10.57;6.40;;;;;;;7.68;100.00;101199.81;5075047;28;20180;-65
2023/10/06 01:10:37;;;;;;;8.33;6.00;;;;;;;7.64;100.00;101196.50;5083666;28;20219;-64
2023/10/06 01:13:12;;;;;;;8.83;5.90;;;;;;;7.71;100.00;101197.19;5094191;28;20226;-64
2023/10/06 01:15:45;;;;;;;9.90;6.40;;;;;;;7.76;100.00;101197.91;5077917;28;20563;-65
2023/10/06 01:18:20;;;;;;;9.90;5.53;;;;;;;7.56;100.00;101198.41;5106881;28;20172;-64
2023/10/06 01:20:46;;;;;;;10.30;5.43;;;;;;;7.53;100.00;101198.44;5081039;28;20269;-66
2023/10/06 01:23:21;;;;;;;8.47;5.97;;;;;;;7.61;100.00;101199.13;5084341;28;20717;-65
2023/10/06 01:25:47;;;;;;;8.40;5.43;;;;;;;7.52;100.00;101197.63;5099662;28;20174;-65
2023/10/06 01:28:12;;;;;;;8.20;5.33;;;;;;;7.61;100.00;101196.56;5104131;28;20180;-65
2023/10/06 01:30:38;;;;;;;8.77;5.37;;;;;;;7.67;100.00;101195.56;5096888;28;20746;-64
2023/10/06 01:33:05;;;;;;;8.10;5.33;;;;;;;7.67;100.00;101201.53;5102266;28;20194;-65
2023/10/06 01:35:33;;;;;;;12.40;5.83;;;;;;;7.60;100.00;101189.75;5110345;28;20187;-65
2023/10/06 01:38:05;;;;;;;9.50;5.73;;;;;;;7.64;100.00;101203.31;5073483;28;20188;-65
2023/10/06 01:42:56;;;;;;;12.50;6.13;;;;;;;7.65;100.00;101193.03;5113386;28;20200;-67
2023/10/06 01:45:21;;;;;;;8.70;5.93;;;;;;;7.66;100.00;101204.13;5101361;28;20205;-64
2023/10/06 01:47:56;;;;;;;12.33;6.50;;;;;;;7.61;100.00;101191.44;5102194;28;20607;-64
2023/10/06 01:50:27;;;;;;;11.20;5.83;;;;;;;7.59;100.00;101199.16;5063056;28;20292;-63
2023/10/06 01:52:55;;;;;;;7.87;5.40;;;;;;;7.57;100.00;101189.84;5073434;28;20188;-64
2023/10/06 01:55:23;;;;;;;9.80;5.60;;;;;;;7.58;100.00;101194.09;5065564;28;20218;-64
2023/10/06 01:57:49;;;;;;;10.60;6.10;;;;;;;7.56;100.00;101191.53;5076018;28;20187;-63
2023/10/06 02:00:16;;;;;;;9.10;5.33;;;;;;;7.54;100.00;101184.78;5083585;28;20176;-65
2023/10/06 02:02:41;;;;;;;12.67;5.80;;;;;;;7.50;100.00;101191.69;5093070;28;20203;-63
2023/10/06 02:05:12;;;;;;;9.60;5.40;;;;;;;7.46;100.00;101186.72;5088658;28;20181;-65
2023/10/06 02:07:38;;;;;;;9.83;5.83;;;;;;;7.49;100.00;101187.47;5072881;28;20176;-65
2023/10/06 02:10:04;;;;;;;9.07;6.27;;;;;;;7.48;100.00;101190.91;5074714;28;20214;-66
2023/10/06 02:12:29;;;;;;;7.87;5.63;;;;;;;7.47;100.00;101186.66;5093423;28;20200;-64
2023/10/06 02:14:54;;;;;;;6.83;5.43;;;;;;;7.47;100.00;101196.91;5098522;28;20204;-64
2023/10/06 02:17:19;;;;;;;11.13;5.50;;;;;;;7.31;100.00;101183.63;5088140;28;20669;-64
2023/10/06 02:19:45;;;;;;;9.73;6.43;;;;;;;7.32;100.00;101193.00;5081718;28;20187;-64
2023/10/06 02:22:10;;;;;;;9.40;6.10;;;;;;;7.30;100.00;101188.78;5068161;28;20683;-64
2023/10/06 02:24:36;;;;;;;10.53;6.37;;;;;;;7.32;100.00;101184.44;5094077;28;20215;-64
2023/10/06 02:27:02;;;;;;;8.07;5.87;;;;;;;7.26;100.00;101186.28;5093846;28;20561;-63
2023/10/06 02:29:28;;;;;;;12.63;5.67;;;;;;;7.26;100.00;101185.44;5076096;28;20189;-63
2023/10/06 02:32:01;;;;;;;11.20;6.80;;;;;;;7.24;100.00;101193.19;5064694;28;20714;-64
2023/10/06 02:34:29;;;;;;;10.13;6.50;;;;;;;7.23;100.00;101195.75;5094250;28;20176;-64
2023/10/06 02:37:00;;;;;;;13.20;6.23;;;;;;;7.23;100.00;101191.50;5076273;28;21277;-64
2023/10/06 02:39:28;;;;;;;13.83;7.10;;;;;;;7.24;100.00;101185.50;5075965;28;20657;-64
2023/10/06 02:41:57;;;;;;;11.27;6.80;;;;;;;7.18;100.00;101183.06;5065333;28;20224;-65
2023/10/06 02:44:26;;;;;;;9.23;6.47;;;;;;;7.16;100.00;101174.59;5073374;28;20176;-63
2023/10/06 02:46:52;;;;;;;14.30;6.63;;;;;;;7.12;100.00;101183.22;5074677;28;20282;-64
2023/10/06 02:49:31;;;;;;;11.90;6.83;;;;;;;7.15;100.00;101184.88;5074182;28;20219;-64
2023/10/06 02:52:00;;;;;;;8.97;6.70;;;;;;;7.01;100.00;101180.03;5084546;28;20219;-63
2023/10/06 02:54:28;;;;;;;17.10;7.90;;;;;;;7.17;100.00;101178.84;5112193;28;20171;-70
2023/10/06 02:56:55;;;;;;;10.80;7.13;;;;;;;7.17;100.00;101183.09;5095291;28;20301;-65
2023/10/06 02:59:21;;;;;;;10.93;7.07;;;;;;;7.09;100.00;101171.34;5080812;28;20184;-64
2023/10/06 03:02:06;;;;;;;9.43;6.27;;;;;;;7.09;100.00;101183.28;5061495;28;20745;-65
2023/10/06 03:04:35;;;;;;;13.87;6.73;;;;;;;7.18;100.00;101183.06;5077246;28;20263;-64
2023/10/06 03:07:04;;;;;;;8.77;6.27;;;;;;;7.19;100.00;101183.91;5084694;28;20263;-65
2023/10/06 03:09:45;;;;;;;11.47;6.50;;;;;;;7.19;100.00;101186.47;5073663;28;20184;-65
2023/10/06 03:14:56;;;;;;;9.13;6.80;;;;;;;7.10;100.00;101175.56;5080398;28;20211;-64
2023/10/06 03:17:22;;;;;;;13.63;7.33;;;;;;;7.10;100.00;101164.50;5093321;28;20176;-64
2023/10/06 03:22:35;;;;;;;9.63;6.40;;;;;;;7.11;100.00;101169.56;5079945;28;20223;-64
2023/10/06 03:25:01;;;;;;;8.67;6.93;;;;;;;7.08;100.00;101164.53;5093074;28;20179;-65
2023/10/06 03:27:26;;;;;;;15.53;6.80;;;;;;;7.12;100.00;101167.88;5110141;28;20191;-64
2023/10/06 03:29:55;;;;;;;12.60;6.70;;;;;;;7.13;100.00;101163.56;5101554;28;20183;-64
2023/10/06 03:32:28;;;;;;;8.93;6.90;;;;;;;7.15;100.00;101170.34;5042377;28;20224;-65
2023/10/06 03:34:55;;;;;;;9.10;6.60;;;;;;;7.14;100.00;101178.06;5094227;28;20178;-64
2023/10/06 03:37:34;;;;;;;8.60;6.67;;;;;;;7.12;100.00;101175.53;5092966;28;20252;-65
2023/10/06 03:40:19;;;;;;;9.53;5.83;;;;;;;7.09;100.00;101173.91;5097571;28;20249;-64
2023/10/06 03:42:45;;;;;;;10.23;7.17;;;;;;;7.07;100.00;101173.06;5083663;28;20226;-64
2023/10/06 03:45:18;;;;;;;10.60;6.43;;;;;;;7.06;100.00;101165.44;5079976;28;20185;-65
2023/10/06 03:47:46;;;;;;;9.60;6.90;;;;;;;7.03;100.00;101168.06;5100646;28;20270;-65
2023/10/06 03:50:13;;;;;;;13.17;7.53;;;;;;;7.00;100.00;101161.31;5049847;28;20195;-66
2023/10/06 03:52:39;;;;;;;12.57;6.47;;;;;;;6.99;100.00;101161.34;5083585;28;20202;-68
2023/10/06 03:55:06;;;;;;;9.63;6.73;;;;;;;6.95;100.00;101163.94;5090988;28;20534;-66
2023/10/06 03:57:31;;;;;;;13.00;7.73;;;;;;;6.94;100.00;101164.00;5099963;28;20180;-65
2023/10/06 03:59:58;;;;;;;12.20;7.07;;;;;;;6.94;100.00;101167.38;5096377;28;20176;-66
2023/10/06 04:02:38;;;;;;;11.70;7.00;;;;;;;6.90;100.00;101167.50;5071177;28;20238;-65
2023/10/06 04:05:06;;;;;;;11.70;6.60;;;;;;;6.95;100.00;101163.13;5074500;28;20164;-64
2023/10/06 04:07:32;;;;;;;12.53;8.30;;;;;;;6.92;100.00;101166.59;5092594;28;20183;-64
2023/10/06 04:09:58;;;;;;;9.77;7.77;;;;;;;6.90;100.00;101165.78;5093640;28;20761;-63
2023/10/06 04:12:23;;;;;;;12.97;7.87;;;;;;;6.85;100.00;101174.44;5082404;28;20307;-64
2023/10/06 04:14:49;;;;;;;13.83;7.73;;;;;;;6.80;100.00;101174.53;5092360;28;20365;-63
2023/10/06 04:17:16;;;;;;;9.17;6.87;;;;;;;6.77;100.00;101165.22;5092494;28;20176;-64
2023/10/06 04:19:41;;;;;;;11.33;6.93;;;;;;;6.72;100.00;101177.25;5112576;28;20239;-64
2023/10/06 04:22:07;;;;;;;9.70;7.13;;;;;;;6.68;100.00;101174.78;5082531;28;20621;-64
2023/10/06 04:24:34;;;;;;;11.63;7.37;;;;;;;6.77;100.00;101177.16;5092593;28;20299;-65
2023/10/06 04:27:00;;;;;;;10.57;6.77;;;;;;;6.73;100.00;101181.47;5078661;28;20180;-65
2023/10/06 04:29:26;;;;;;;9.67;7.37;;;;;;;6.73;100.00;101188.31;5074105;28;20205;-64
2023/10/06 04:31:51;;;;;;;9.30;7.37;;;;;;;6.73;100.00;101186.59;5078696;28;20228;-64
2023/10/06 04:34:21;;;;;;;11.67;7.77;;;;;;;6.73;100.00;101181.47;5087060;28;20232;-63
2023/10/06 04:36:48;;;;;;;10.67;7.03;;;;;;;6.76;100.00;101186.53;5079027;28;20176;-63
2023/10/06 04:39:16;;;;;;;9.30;7.30;;;;;;;6.68;100.00;101180.75;5073805;28;20175;-63
2023/10/06 04:41:42;;;;;;;9.47;7.40;;;;;;;6.69;100.00;101179.03;5072976;28;20281;-63
2023/10/06 04:44:07;;;;;;;8.30;7.20;;;;;;;6.72;100.00;101178.97;5082881;28;20165;-63
2023/10/06 04:46:35;;;;;;;8.53;6.97;;;;;;;6.74;100.00;101178.06;5068679;28;20653;-64
2023/10/06 04:49:00;;;;;;;11.67;7.23;;;;;;;6.76;100.00;101175.44;5063962;28;20183;-65
2023/10/06 04:51:27;;;;;;;11.17;7.50;;;;;;;6.68;100.00;101173.06;5059785;28;20323;-64
2023/10/06 04:53:52;;;;;;;12.57;7.60;;;;;;;6.66;100.00;101172.28;5078887;28;20623;-64
2023/10/06 04:56:17;;;;;;;18.17;7.77;;;;;;;6.63;100.00;101172.31;5075458;28;20185;-64
2023/10/06 04:58:43;;;;;;;8.23;7.33;;;;;;;6.67;100.00;101168.00;5080997;28;20584;-64
2023/10/06 05:01:08;;;;;;;9.73;7.57;;;;;;;6.59;100.00;101170.72;5060120;28;20231;-64
2023/10/06 05:03:45;;;;;;;10.40;7.17;;;;;;;6.55;100.00;101163.97;5079580;28;20186;-63
2023/10/06 05:06:13;;;;;;;9.73;7.50;;;;;;;6.54;100.00;101158.03;5073987;28;20178;-64
2023/10/06 05:08:39;;;;;;;11.47;7.40;;;;;;;6.57;100.00;101157.97;5073503;28;20279;-65
2023/10/06 05:11:06;;;;;;;12.93;7.17;;;;;;;6.63;100.00;101159.53;5062749;28;20303;-64
2023/10/06 05:13:31;;;;;;;19.37;7.87;;;;;;;6.72;100.00;101168.72;5090210;28;20170;-64
2023/10/06 05:15:57;;;;;;;10.70;8.17;;;;;;;6.68;100.00;101172.25;5084370;28;20179;-65
2023/10/06 05:18:24;;;;;;;9.60;7.87;;;;;;;6.71;100.00;101180.69;5101654;28;20180;-65
2023/10/06 05:20:52;;;;;;;10.83;7.90;;;;;;;6.70;100.00;101184.13;5072428;28;20232;-67
2023/10/06 05:23:17;;;;;;;8.67;7.73;;;;;;;6.67;100.00;101189.28;5081019;28;20337;-63
2023/10/06 05:25:46;;;;;;;8.50;7.67;;;;;;;6.55;100.00;101192.94;5107521;28;20523;-63
2023/10/06 05:28:13;;;;;;;13.53;8.90;;;;;;;6.67;100.00;101194.38;5079335;28;20306;-64
2023/10/06 05:30:39;;;;;;;9.83;7.63;;;;;;;6.66;100.00;101200.41;5076613;28;20729;-64
2023/10/06 05:33:04;;;;;;;16.33;7.57;;;;;;;6.65;100.00;101195.28;5090963;28;20180;-65
2023/10/06 05:35:36;;;;;;;8.50;6.97;;;;;;;6.51;100.00;101193.03;5106057;28;20189;-65
2023/10/06 05:38:13;;;;;;;13.63;7.00;;;;;;;6.56;100.00;101201.44;5092621;28;20194;-65
2023/10/06 05:40:38;;;;;;;8.87;6.97;;;;;;;6.61;100.00;101192.81;5093964;28;20710;-65
2023/10/06 05:43:11;;;;;;;9.73;7.23;;;;;;;6.58;100.00;101199.72;5098336;28;20218;-65
2023/10/06 05:45:39;;;;;;;9.03;8.13;;;;;;;6.62;100.00;101203.88;5078278;28;20627;-69
2023/10/06 05:48:08;;;;;;;8.70;7.80;;;;;;;6.53;100.00;101196.41;5073142;28;20192;-66
2023/10/06 05:50:35;;;;;;;11.60;7.33;;;;;;;6.55;100.00;101184.41;5058868;28;20240;-65
2023/10/06 05:53:08;;;;;;;10.93;7.10;;;;;;;6.63;100.00;101182.56;5077239;28;20201;-64
2023/10/06 05:55:35;;;;;;;11.67;8.17;;;;;;;6.72;100.00;101178.97;5073911;28;20281;-64
2023/10/06 05:58:03;;;;;;;12.27;8.53;;;;;;;6.68;100.00;101175.63;5089364;28;20178;-64
2023/10/06 06:00:32;;;;;;;13.47;7.77;;;;;;;6.77;100.00;101178.00;5062602;28;20238;-65
2023/10/06 06:03:06;;;;;;;8.10;7.37;;;;;;;6.85;100.00;101185.50;5076087;28;20232;-65
2023/10/06 06:05:33;;;;;;;8.77;7.87;;;;;;;6.89;100.00;101174.31;5094110;28;20187;-65
2023/10/06 06:07:59;;;;;;;10.47;7.77;;;;;;;6.98;100.00;101177.56;5080090;28;20171;-64
2023/10/06 06:10:28;;;;;;;8.90;7.40;;;;;;;7.02;100.00;101184.28;5087406;28;20234;-63
2023/10/06 06:12:57;;;;;;;16.47;8.80;;;;;;;7.25;100.00;101194.81;5079173;28;20221;-63
2023/10/06 06:15:25;;;;;;;8.80;7.03;;;;;;;7.34;100.00;101198.06;5080581;28;20295;-62
2023/10/06 06:17:50;;;;;;;10.60;7.73;;;;;;;7.39;100.00;101199.66;5093393;28;20176;-63
2023/10/06 06:20:18;;;;;;;9.30;7.57;;;;;;;7.38;100.00;101207.34;5058832;28;20605;-63
2023/10/06 06:22:55;;;;;;;10.47;9.23;;;;;;;7.39;100.00;101212.44;5032169;28;20275;-63
2023/10/06 06:25:21;;;;;;;11.07;8.40;;;;;;;7.56;100.00;101206.06;5045771;28;20581;-64
2023/10/06 06:27:47;;;;;;;10.03;8.43;;;;;;;7.76;100.00;101195.34;5033850;28;20184;-65
2023/10/06 06:30:18;;;;;;;10.23;7.80;;;;;;;8.51;100.00;101200.22;5023761;28;20185;-64
2023/10/06 06:32:43;;;;;;;7.97;7.13;;;;;;;9.47;100.00;101196.50;5084669;28;20224;-62
2023/10/06 06:35:13;;;;;;;10.67;6.60;;;;;;;10.78;100.00;101194.53;5093619;28;20218;-64
2023/10/06 06:37:39;;;;;;;7.57;6.33;;;;;;;12.01;100.00;101185.31;5088724;28;20200;-63
2023/10/06 06:40:09;;;;;;;8.87;5.20;;;;;;;12.72;100.00;101177.00;5061133;28;20176;-65
2023/10/06 06:42:35;;;;;;;6.70;4.00;;;;;;;13.75;100.00;101178.13;5062015;28;20632;-65
2023/10/06 06:45:01;;;;;;;4.30;3.90;;;;;;;14.66;100.00;101182.91;5089865;28;20176;-64
2023/10/06 06:47:26;;;;;;;6.90;4.50;;;;;;;15.66;100.00;101173.84;5093637;28;20288;-64
2023/10/06 06:49:52;;;;;;;6.47;4.13;;;;;;;16.71;100.00;101179.69;5093283;28;20172;-65
2023/10/06 06:52:21;;;;;;;7.70;3.37;;;;;;;17.22;100.00;101179.88;5062517;28;20228;-65
2023/10/06 06:54:47;;;;;;;5.27;3.60;;;;;;;18.05;98.54;101177.88;5075924;28;20635;-69
2023/10/06 06:57:15;;;;;;;6.23;3.60;;;;;;;19.14;92.43;101184.13;5096555;28;20203;-67
2023/10/06 06:59:42;;;;;;;4.57;3.70;;;;;;;18.20;88.29;101183.78;5083221;28;20171;-66
2023/10/06 07:02:09;;;;;;;4.50;3.23;;;;;;;17.54;98.71;101194.28;5059620;28;20227;-66
2023/10/06 07:04:35;;;;;;;5.70;3.40;;;;;;;17.37;97.56;101188.41;5093361;28;20172;-67
2023/10/06 07:07:01;;;;;;;5.70;4.63;;;;;;;17.20;100.00;101196.50;5084456;28;20193;-66
2023/10/06 07:09:27;;;;;;;6.00;4.60;;;;;;;17.19;100.00;101198.28;5106123;28;20194;-66
2023/10/06 07:11:54;;;;;;;4.20;3.80;;;;;;;17.62;100.00;101198.97;5072963;28;20379;-66
2023/10/06 07:14:20;;;;;;;5.27;4.13;;;;;;;17.29;100.00;101201.13;5087853;28;20203;-66
2023/10/06 07:16:47;;;;;;;8.57;4.10;;;;;;;17.97;97.66;101201.81;5093327;28;20534;-66
2023/10/06 07:19:14;;;;;;;6.13;4.10;;;;;;;18.26;92.29;101199.00;5081991;28;20172;-66
2023/10/06 07:21:40;;;;;;;5.97;4.50;;;;;;;17.33;99.88;101206.91;5075656;28;20432;-67
2023/10/06 07:24:05;;;;;;;8.40;4.50;;;;;;;16.66;100.00;101207.69;5062805;28;20697;-66
2023/10/06 07:26:31;;;;;;;5.43;4.67;;;;;;;16.49;100.00;101198.38;5069622;28;20246;-65
2023/10/06 07:28:59;;;;;;;8.80;5.47;;;;;;;16.87;100.00;101205.50;5072063;28;20177;-66
2023/10/06 07:31:27;;;;;;;7.53;4.43;;;;;;;16.99;100.00;101202.13;5039480;28;20236;-67
2023/10/06 07:33:52;;;;;;;7.20;4.53;;;;;;;17.51;100.00;101199.69;5045960;28;20169;-64
2023/10/06 07:36:18;;;;;;;5.00;4.50;;;;;;;17.41;100.00;101205.50;5082902;28;20622;-64
2023/10/06 07:38:44;;;;;;;6.67;4.10;;;;;;;16.62;100.00;101199.25;5092316;28;20188;-65
2023/10/06 07:41:26;;;;;;;7.70;4.67;;;;;;;15.53;100.00;101207.47;5063544;28;20446;-65
2023/10/06 07:43:52;;;;;;;6.77;4.23;;;;;;;14.95;100.00;101203.81;5072012;28;20184;-66
2023/10/06 07:46:17;;;;;;;10.67;5.07;;;;;;;14.44;100.00;101204.75;5054671;28;20200;-65
2023/10/06 07:48:45;;;;;;;8.30;4.93;;;;;;;13.89;100.00;101211.03;5072878;28;20181;-67
2023/10/06 07:51:13;;;;;;;5.13;4.60;;;;;;;14.19;100.00;101206.06;5056971;28;20260;-67
2023/10/06 07:53:39;;;;;;;6.20;4.77;;;;;;;14.47;100.00;101207.19;5071310;28;20187;-66
2023/10/06 07:56:08;;;;;;;9.60;5.83;;;;;;;14.30;100.00;101215.00;5072339;28;20548;-66
2023/10/06 07:58:41;;;;;;;7.83;4.73;;;;;;;14.18;100.00;101217.31;5054842;28;20274;-66
2023/10/06 08:01:10;;;;;;;7.20;4.93;;;;;;;14.10;100.00;101210.88;5043650;28;20250;-66
2023/10/06 08:03:38;;;;;;;6.30;4.90;;;;;;;14.03;100.00;101206.00;5071145;28;20267;-66
2023/10/06 08:06:07;;;;;;;6.10;5.50;;;;;;;13.82;100.00;101205.34;5075274;28;20199;-66
2023/10/06 08:08:33;;;;;;;5.30;4.80;;;;;;;13.30;100.00;101221.66;5055235;28;20596;-66
2023/10/06 08:11:01;;;;;;;9.13;5.87;;;;;;;13.23;100.00;101212.53;5047871;28;20239;-67
2023/10/06 08:13:28;;;;;;;9.70;5.73;;;;;;;12.93;100.00;101213.06;5059612;28;20232;-67
2023/10/06 08:15:53;;;;;;;7.07;5.47;;;;;;;12.75;100.00;101209.56;5063631;28;20186;-66
2023/10/06 08:18:19;;;;;;;10.53;5.93;;;;;;;12.59;100.00;101212.88;5081817;28;20184;-66
2023/10/06 08:20:46;;;;;;;8.63;5.57;;;;;;;12.55;100.00;101207.91;5067529;28;20331;-68
2023/10/06 08:23:11;;;;;;;10.27;5.63;;;;;;;12.50;100.00;101204.72;5067750;28;20266;-68
2023/10/06 08:25:37;;;;;;;8.47;5.53;;;;;;;12.17;100.00;101205.28;5069575;28;20174;-68
2023/10/06 08:28:05;;;;;;;9.60;6.00;;;;;;;12.43;100.00;101214.47;5070181;28;20181;-66
2023/10/06 08:30:32;;;;;;;6.73;5.90;;;;;;;12.66;100.00;101212.59;5035158;28;20217;-65
2023/10/06 08:32:59;;;;;;;9.77;5.80;;;;;;;12.79;100.00;101220.59;5078139;28;20195;-66
2023/10/06 08:35:26;;;;;;;11.20;5.60;;;;;;;13.12;100.00;101213.03;5052668;28;20192;-66
2023/10/06 08:37:52;;;;;;;8.97;5.73;;;;;;;13.42;100.00;101219.41;5070965;28;20180;-67
2023/10/06 08:40:20;;;;;;;7.77;5.37;;;;;;;13.77;100.00;101217.69;5057613;28;20260;-66
2023/10/06 08:42:53;;;;;;;6.23;5.20;;;;;;;14.04;100.00;101209.41;5053990;28;20212;-68
2023/10/06 08:45:20;;;;;;;8.40;5.23;;;;;;;14.51;100.00;101208.72;5070875;28;20540;-66
2023/10/06 08:47:50;;;;;;;9.70;6.13;;;;;;;14.56;100.00;101208.44;5052982;28;20195;-66
2023/10/06 08:50:22;;;;;;;6.93;4.73;;;;;;;14.55;100.00;101209.38;5054319;28;20181;-67
2023/10/06 08:52:50;;;;;;;13.00;5.63;;;;;;;14.93;100.00;101203.88;5077806;28;20657;-67
2023/10/06 08:55:17;;;;;;;6.97;4.80;;;;;;;15.85;100.00;101199.59;5052908;28;20640;-68
2023/10/06 08:57:45;;;;;;;10.20;5.53;;;;;;;16.26;100.00;101196.25;5052526;28;20187;-68
2023/10/06 09:00:12;;;;;;;7.00;4.67;;;;;;;17.54;100.00;101194.28;5042431;28;20614;-67
2023/10/06 09:02:37;;;;;;;6.83;4.90;;;;;;;18.05;100.00;101185.69;5072834;28;20247;-67
2023/10/06 09:05:05;;;;;;;8.37;4.67;;;;;;;19.28;100.00;101186.50;5070982;28;20188;-68
2023/10/06 09:07:31;;;;;;;6.37;4.40;;;;;;;20.67;95.85;101187.31;5069756;28;20180;-68
2023/10/06 09:09:57;;;;;;;8.67;4.00;;;;;;;22.23;84.75;101177.84;5052845;28;20169;-67
2023/10/06 09:12:25;;;;;;;11.10;4.63;;;;;;;23.21;75.84;101180.59;5043123;28;20606;-66
2023/10/06 09:14:56;;;;;;;5.23;3.83;;;;;;;24.97;62.13;101186.03;5065838;28;20201;-68
2023/10/06 09:17:32;;;;;;;7.55;4.55;;;;;;;25.08;55.79;101190.19;5068970;28;20204;-66
2023/10/06 09:19:58;;;;;;;7.25;4.30;;;;;;;25.87;52.86;101198.97;5049608;28;20336;-67
2023/10/06 09:22:29;;;;;;;8.00;4.47;;;;;;;24.02;58.22;101187.16;5061084;28;20264;-67
2023/10/06 09:25:04;;;;;;;7.72;4.85;;;;;;;22.69;71.52;101182.66;5071250;28;20585;-66
2023/10/06 09:27:31;;;;;;;6.68;4.43;;;;;;;23.22;69.72;101178.81;5049131;28;20288;-67
2023/10/06 09:30:11;;;;;;;6.55;4.20;;;;;;;23.33;65.31;101172.56;5044296;28;20193;-68
2023/10/06 09:32:37;;;;;;;8.48;4.85;;;;;;;24.45;62.18;101173.53;5032622;28;20229;-67
2023/10/06 09:35:19;;;;;;;11.05;5.38;;;;;;;24.06;60.38;101165.84;5069333;28;20188;-67
2023/10/06 09:37:45;;;;;;;9.25;5.25;;;;;;;21.60;85.15;101168.34;5058735;28;20180;-67
2023/10/06 09:40:20;;;;;;;5.60;4.38;;;;;;;21.89;87.18;101158.97;5046058;28;20322;-66
2023/10/06 09:42:50;;;;;;;7.05;5.43;;;;;;;21.96;81.85;101156.66;5063687;28;20210;-66
2023/10/06 09:45:21;;;;;;;8.88;4.82;;;;;;;22.83;78.06;101160.44;5084693;28;20632;-67
2023/10/06 09:47:50;;;;;;;8.75;4.60;;;;;;;24.13;65.29;101162.47;5070174;28;20189;-66
2023/10/06 09:50:19;;;;;;;9.32;4.22;;;;;;;23.46;68.68;101161.75;5061975;28;20536;-67
2023/10/06 09:52:47;;;;;;;8.32;3.63;;;;;;;24.90;59.31;101164.75;5052370;28;20180;-67
2023/10/06 09:55:15;;;;;;;11.45;4.45;;;;;;;25.58;56.85;101159.81;5074495;28;20644;-67
2023/10/06 09:57:42;;;;;;;7.28;3.90;;;;;;;25.82;52.47;101161.72;5055919;28;20188;-68
2023/10/06 10:00:16;;;;;;;10.70;3.80;;;;;;;24.85;50.73;101159.09;5046077;28;20693;-68
2023/10/06 10:02:44;;;;;;;7.18;3.40;;;;;;;23.96;66.65;101161.44;5068590;28;20208;-66
2023/10/06 10:05:11;;;;;;;6.47;3.90;;;;;;;25.50;55.48;101159.75;5056108;28;20193;-67
2023/10/06 10:07:40;;;;;;;7.43;4.53;;;;;;;25.66;53.97;101164.28;5055464;28;20181;-67
2023/10/06 10:10:16;;;;;;;8.90;4.30;;;;;;;25.60;52.38;101161.31;5043207;28;20272;-66
2023/10/06 10:12:47;;;;;;;6.82;4.03;;;;;;;25.13;55.11;101157.19;5055193;28;20546;-66
2023/10/06 10:15:37;;;;;;;7.07;4.05;;;;;;;22.09;69.89;101152.84;5073587;28;20211;-67
2023/10/06 10:18:21;;;;;;;9.27;4.22;;;;;;;20.62;90.73;101145.84;5073973;28;20184;-66
2023/10/06 10:20:47;;;;;;;7.55;3.75;;;;;;;19.82;96.75;101145.09;5032651;28;20565;-67
2023/10/06 10:23:16;;;;;;;13.00;4.47;;;;;;;19.35;100.00;101143.38;5075669;28;20235;-68
2023/10/06 10:25:41;;;;;;;7.72;3.65;;;;;;;18.58;100.00;101135.13;5073293;28;20223;-68
2023/10/06 10:28:27;;;;;;;8.10;3.67;;;;;;;18.85;100.00;101129.69;5073878;28;20255;-68
2023/10/06 10:30:56;;;;;;;11.30;4.40;;;;;;;18.31;100.00;101134.38;5078514;28;20311;-67
2023/10/06 10:33:43;;;;;;;12.10;4.53;;;;;;;18.38;100.00;101129.56;5054787;28;20181;-68
2023/10/06 10:36:15;;;;;;;7.80;4.13;;;;;;;18.53;100.00;101130.22;5061232;28;20640;-68
2023/10/06 10:38:44;;;;;;;10.17;4.57;;;;;;;18.04;100.00;101126.75;5073417;28;20578;-69
2023/10/06 10:41:10;;;;;;;10.00;4.60;;;;;;;17.71;100.00;101122.88;5054707;28;20232;-67
2023/10/06 10:43:45;;;;;;;17.53;4.33;;;;;;;17.69;100.00;101117.81;5061787;28;20212;-66
2023/10/06 10:46:12;;;;;;;10.60;4.40;;;;;;;17.52;100.00;101118.13;5070961;28;20203;-67
2023/10/06 10:48:47;;;;;;;9.57;4.97;;;;;;;17.09;100.00;101122.66;5073191;28;20263;-67
2023/10/06 10:51:13;;;;;;;9.23;4.33;;;;;;;16.97;100.00;101120.00;5045831;28;20305;-66
2023/10/06 10:53:42;;;;;;;7.07;4.50;;;;;;;16.40;100.00;101120.09;5079012;28;20264;-67
2023/10/06 10:56:19;;;;;;;8.90;4.47;;;;;;;16.74;100.00;101110.13;5055205;28;20207;-65
2023/10/06 10:58:44;;;;;;;8.23;3.90;;;;;;;17.01;100.00;101108.50;5055278;28;20267;-66
2023/10/06 11:01:37;;;;;;;8.10;4.57;;;;;;;17.30;100.00;101101.34;5059122;28;20304;-67
2023/10/06 11:04:18;;;;;;;7.60;4.53;;;;;;;17.49;100.00;101097.50;5069634;28;20188;-68
2023/10/06 11:06:45;;;;;;;14.43;4.20;;;;;;;17.81;100.00;101102.28;5052013;28;20581;-65
2023/10/06 11:09:12;;;;;;;8.30;4.23;;;;;;;17.74;100.00;101096.69;5050865;28;20195;-67
2023/10/06 11:11:40;;;;;;;8.53;4.73;;;;;;;17.32;100.00;101096.88;5059024;28;20224;-68
2023/10/06 11:14:05;;;;;;;8.73;4.77;;;;;;;17.35;100.00;101088.88;5056402;28;20202;-67
2023/10/06 11:16:32;;;;;;;11.10;4.20;;;;;;;17.51;100.00;101087.84;5064862;28;20181;-66
2023/10/06 11:18:58;;;;;;;13.87;5.10;;;;;;;17.51;100.00;101091.25;5072776;28;20184;-66
2023/10/06 11:21:27;;;;;;;7.97;4.13;;;;;;;17.64;100.00;101082.63;5050955;28;20311;-69
2023/10/06 11:23:52;;;;;;;7.63;4.10;;;;;;;17.96;100.00;101083.03;5077086;28;20228;-66
2023/10/06 11:26:28;;;;;;;11.07;4.10;;;;;;;18.17;100.00;101082.44;5072553;28;20187;-67
2023/10/06 11:28:53;;;;;;;8.00;3.57;;;;;;;18.30;100.00;101075.41;5084948;28;20267;-67
2023/10/06 11:31:18;;;;;;;9.07;4.37;;;;;;;17.92;100.00;101068.53;5029925;28;20300;-66
2023/10/06 11:33:44;;;;;;;10.33;3.77;;;;;;;17.84;100.00;101065.66;5065384;28;20225;-66